Time;durP1;ratioP1;P1;durP2;ratioP2;P2;SDS_P1;SDS_P2;PMS_P1;PMS_P2;Temp;Humidity;BMP_temperature;BMP_pressure;BME280_temperature;BME280_humidity;BME280_pressure;Samples;Min_cycle;Max_cycle;Signal;HPM_P1;HPM_P2
2022/09/22 00:01:49;;;;;;;7.95;6.65;;;;;;;;;;1838438;76;21164;-81
2022/09/22 00:04:19;;;;;;;8.23;6.92;;;;;;;;;;1840040;77;21610;-84
2022/09/22 00:06:51;;;;;;;9.70;6.85;;;;;;;;;;1833652;77;21167;-83
2022/09/22 00:09:21;;;;;;;11.68;7.62;;;;;;;;;;1839754;76;21132;-84
2022/09/22 00:11:52;;;;;;;7.25;6.25;;;;;;;;;;1836275;76;21748;-84
2022/09/22 00:14:24;;;;;;;11.12;7.47;;;;;;;;;;1841171;77;21070;-84
2022/09/22 00:16:55;;;;;;;9.68;6.78;;;;;;;;;;1836671;76;21128;-85
2022/09/22 00:19:26;;;;;;;9.88;7.20;;;;;;;;;;1838080;76;21122;-84
2022/09/22 00:21:57;;;;;;;8.70;6.75;;;;;;;;;;1847877;76;21156;-81
2022/09/22 00:24:28;;;;;;;9.13;7.12;;;;;;;;;;1837195;76;21594;-83
2022/09/22 00:26:58;;;;;;;9.48;6.90;;;;;;;;;;1842160;76;21614;-83
2022/09/22 00:29:36;;;;;;;8.95;6.85;;;;;;;;;;1827191;76;21206;-82
2022/09/22 00:32:06;;;;;;;10.05;7.15;;;;;;;;;;1836214;76;21198;-85
2022/09/22 00:34:36;;;;;;;8.40;7.35;;;;;;;;;;1843509;76;21088;-83
2022/09/22 00:37:07;;;;;;;11.95;8.43;;;;;;;;;;1825631;76;21088;-82
2022/09/22 00:39:37;;;;;;;13.18;7.97;;;;;;;;;;1831371;76;21170;-83
2022/09/22 00:42:11;;;;;;;10.82;7.50;;;;;;;;;;1838678;76;21429;-84
2022/09/22 00:44:41;;;;;;;10.25;7.78;;;;;;;;;;1835885;76;21224;-86
2022/09/22 00:47:13;;;;;;;13.08;8.43;;;;;;;;;;1850076;76;21162;-84
2022/09/22 00:49:44;;;;;;;8.70;7.60;;;;;;;;;;1846085;76;21634;-83
2022/09/22 00:52:15;;;;;;;9.05;7.12;;;;;;;;;;1852922;76;21234;-83
2022/09/22 00:54:45;;;;;;;10.48;7.22;;;;;;;;;;1849391;76;21186;-82
2022/09/22 00:57:17;;;;;;;8.60;7.60;;;;;;;;;;1846500;76;21197;-83
2022/09/22 00:59:48;;;;;;;9.55;7.47;;;;;;;;;;1851054;76;21563;-83
2022/09/22 01:02:19;;;;;;;9.38;7.35;;;;;;;;;;1842129;76;21080;-83
2022/09/22 01:04:51;;;;;;;8.13;7.30;;;;;;;;;;1849016;76;21083;-84
2022/09/22 01:07:22;;;;;;;11.03;7.78;;;;;;;;;;1848315;76;21196;-84
2022/09/22 01:09:54;;;;;;;9.05;7.47;;;;;;;;;;1854008;76;21133;-83
2022/09/22 01:12:25;;;;;;;10.13;7.90;;;;;;;;;;1861428;75;21889;-83
2022/09/22 01:14:57;;;;;;;10.75;7.92;;;;;;;;;;1854484;76;21115;-84
2022/09/22 01:17:28;;;;;;;8.73;7.35;;;;;;;;;;1828585;76;21411;-83
2022/09/22 01:19:58;;;;;;;10.88;8.93;;;;;;;;;;1835707;76;21093;-84
2022/09/22 01:22:31;;;;;;;13.20;8.88;;;;;;;;;;1786591;79;21119;-84
2022/09/22 01:25:02;;;;;;;11.40;9.00;;;;;;;;;;1825484;77;21187;-83
2022/09/22 01:27:33;;;;;;;11.63;8.00;;;;;;;;;;1831641;77;21711;-83
2022/09/22 01:30:14;;;;;;;16.00;9.10;;;;;;;;;;1830902;77;21614;-85
2022/09/22 01:32:45;;;;;;;14.53;9.58;;;;;;;;;;1794270;78;21755;-85
2022/09/22 01:35:17;;;;;;;12.05;9.28;;;;;;;;;;1861006;75;21233;-84
2022/09/22 01:37:48;;;;;;;11.25;8.85;;;;;;;;;;1859739;75;21886;-84
2022/09/22 01:40:19;;;;;;;12.50;10.10;;;;;;;;;;1862351;75;21285;-83
2022/09/22 01:42:51;;;;;;;11.83;9.30;;;;;;;;;;1857232;75;21119;-83
2022/09/22 01:45:22;;;;;;;12.75;10.18;;;;;;;;;;1830035;76;21139;-84
2022/09/22 01:47:54;;;;;;;13.98;9.58;;;;;;;;;;1862500;75;21216;-83
2022/09/22 01:50:25;;;;;;;11.97;9.38;;;;;;;;;;1855545;76;21161;-83
2022/09/22 01:53:01;;;;;;;11.48;9.03;;;;;;;;;;1858140;76;21137;-83
2022/09/22 01:55:34;;;;;;;11.05;7.78;;;;;;;;;;1852287;75;21600;-83
2022/09/22 01:58:02;;;;;;;11.38;8.08;;;;;;;;;;1857898;75;21196;-84
2022/09/22 02:00:32;;;;;;;10.90;8.13;;;;;;;;;;1860610;76;21676;-83
2022/09/22 02:03:06;;;;;;;12.35;8.43;;;;;;;;;;1864457;76;21148;-84
2022/09/22 02:05:38;;;;;;;11.22;7.60;;;;;;;;;;1861228;76;21155;-84
2022/09/22 02:08:09;;;;;;;11.48;8.00;;;;;;;;;;1871084;75;21188;-83
2022/09/22 02:10:40;;;;;;;10.63;7.55;;;;;;;;;;1861849;75;21189;-83
2022/09/22 02:13:11;;;;;;;10.03;8.80;;;;;;;;;;1860911;76;21136;-83
2022/09/22 02:18:15;;;;;;;9.98;8.93;;;;;;;;;;1849506;76;21174;-83
2022/09/22 02:20:45;;;;;;;9.98;8.43;;;;;;;;;;1853853;76;21667;-83
2022/09/22 02:23:15;;;;;;;11.65;8.25;;;;;;;;;;1859905;76;21139;-84
2022/09/22 02:25:46;;;;;;;9.48;7.90;;;;;;;;;;1861775;76;21236;-83
2022/09/22 02:28:17;;;;;;;10.88;7.65;;;;;;;;;;1851658;76;21245;-86
2022/09/22 02:30:49;;;;;;;10.25;8.08;;;;;;;;;;1811253;77;21160;-84
2022/09/22 02:33:21;;;;;;;13.90;8.98;;;;;;;;;;1850367;75;21138;-85
2022/09/22 02:35:53;;;;;;;12.03;8.20;;;;;;;;;;1853147;75;21253;-84
2022/09/22 02:38:24;;;;;;;10.72;8.05;;;;;;;;;;1854816;76;21091;-82
2022/09/22 02:40:56;;;;;;;10.50;8.20;;;;;;;;;;1860478;76;21123;-83
2022/09/22 02:43:27;;;;;;;10.90;7.90;;;;;;;;;;1860886;76;21135;-86
2022/09/22 02:45:58;;;;;;;12.10;8.80;;;;;;;;;;1855225;76;21185;-84
2022/09/22 02:48:30;;;;;;;11.57;9.30;;;;;;;;;;1835968;76;21234;-83
2022/09/22 02:51:00;;;;;;;10.00;8.45;;;;;;;;;;1831547;76;21097;-84
2022/09/22 02:53:32;;;;;;;12.33;9.08;;;;;;;;;;1830835;76;21163;-85
2022/09/22 02:56:03;;;;;;;12.15;8.80;;;;;;;;;;1762708;79;21190;-84
2022/09/22 02:58:33;;;;;;;10.82;9.00;;;;;;;;;;1826757;77;21153;-83
2022/09/22 03:01:03;;;;;;;12.73;8.75;;;;;;;;;;1834357;76;21117;-83
2022/09/22 03:03:33;;;;;;;12.47;9.08;;;;;;;;;;1830535;77;21434;-84
2022/09/22 03:06:03;;;;;;;10.05;8.90;;;;;;;;;;1829770;77;21181;-83
2022/09/22 03:08:33;;;;;;;11.75;9.20;;;;;;;;;;1827250;76;21206;-81
2022/09/22 03:11:03;;;;;;;12.10;9.95;;;;;;;;;;1828909;76;21140;-81
2022/09/22 03:13:34;;;;;;;11.43;9.35;;;;;;;;;;1827663;76;21685;-81
2022/09/22 03:16:05;;;;;;;9.65;8.40;;;;;;;;;;1828283;76;21657;-82
2022/09/22 03:18:35;;;;;;;11.28;10.00;;;;;;;;;;1827587;76;21249;-82
2022/09/22 03:21:05;;;;;;;12.05;9.93;;;;;;;;;;1829615;76;21132;-84
2022/09/22 03:23:35;;;;;;;10.72;9.48;;;;;;;;;;1831441;76;21123;-84
2022/09/22 03:26:05;;;;;;;11.28;9.48;;;;;;;;;;1829383;76;21219;-84
2022/09/22 03:28:36;;;;;;;11.12;8.90;;;;;;;;;;1833008;77;21253;-84
2022/09/22 03:31:06;;;;;;;12.07;9.30;;;;;;;;;;1834045;76;21786;-83
2022/09/22 03:33:36;;;;;;;13.45;9.90;;;;;;;;;;1831713;76;21164;-83
2022/09/22 03:36:06;;;;;;;11.20;10.10;;;;;;;;;;1835010;76;21618;-83
2022/09/22 03:38:36;;;;;;;10.75;9.65;;;;;;;;;;1830084;76;21169;-83
2022/09/22 03:41:07;;;;;;;11.22;9.33;;;;;;;;;;1830059;76;21608;-84
2022/09/22 03:43:37;;;;;;;11.53;9.88;;;;;;;;;;1836379;77;21577;-83
2022/09/22 03:46:07;;;;;;;12.30;9.73;;;;;;;;;;1832529;77;21564;-82
2022/09/22 03:48:37;;;;;;;10.70;9.40;;;;;;;;;;1839491;76;21174;-84
2022/09/22 03:51:09;;;;;;;11.80;9.38;;;;;;;;;;1853009;76;21622;-82
2022/09/22 03:53:39;;;;;;;11.55;9.15;;;;;;;;;;1848038;76;21151;-85
2022/09/22 03:56:10;;;;;;;10.98;8.70;;;;;;;;;;1855757;75;21126;-84
2022/09/22 03:58:41;;;;;;;13.22;9.55;;;;;;;;;;1853626;76;21115;-84
2022/09/22 04:01:12;;;;;;;11.10;9.20;;;;;;;;;;1865721;76;21183;-85
2022/09/22 04:03:42;;;;;;;11.70;9.00;;;;;;;;;;1861709;76;21598;-84
2022/09/22 04:06:12;;;;;;;10.40;8.88;;;;;;;;;;1855677;76;21307;-85
2022/09/22 04:08:42;;;;;;;10.50;8.75;;;;;;;;;;1814997;77;21225;-83
2022/09/22 04:11:12;;;;;;;12.63;9.68;;;;;;;;;;1862786;75;21110;-83
2022/09/22 04:13:44;;;;;;;11.15;10.00;;;;;;;;;;1856216;76;21175;-84
2022/09/22 04:16:15;;;;;;;10.15;8.63;;;;;;;;;;1854668;75;21165;-82
2022/09/22 04:18:45;;;;;;;9.98;8.95;;;;;;;;;;1866231;76;21110;-84
2022/09/22 04:21:16;;;;;;;12.25;9.03;;;;;;;;;;1860584;76;21182;-83
2022/09/22 04:23:47;;;;;;;10.35;9.30;;;;;;;;;;1863385;76;21217;-85
2022/09/22 04:26:17;;;;;;;10.63;9.25;;;;;;;;;;1858753;76;21245;-83
2022/09/22 04:28:47;;;;;;;10.15;8.65;;;;;;;;;;1843623;76;21719;-84
2022/09/22 04:31:18;;;;;;;10.35;9.25;;;;;;;;;;1842358;76;21121;-84
2022/09/22 04:33:48;;;;;;;10.10;9.10;;;;;;;;;;1864379;76;21152;-85
2022/09/22 04:36:18;;;;;;;12.30;9.05;;;;;;;;;;1862387;76;21204;-83
2022/09/22 04:38:48;;;;;;;9.78;8.55;;;;;;;;;;1870672;76;21171;-84
2022/09/22 04:41:18;;;;;;;9.78;8.88;;;;;;;;;;1859257;76;21681;-83
2022/09/22 04:43:49;;;;;;;10.63;8.63;;;;;;;;;;1870546;75;21662;-83
2022/09/22 04:46:19;;;;;;;10.38;8.35;;;;;;;;;;1856984;76;21080;-83
2022/09/22 04:48:51;;;;;;;9.55;8.53;;;;;;;;;;1853350;76;21707;-83
2022/09/22 04:51:21;;;;;;;8.70;7.80;;;;;;;;;;1864416;75;21184;-84
2022/09/22 04:53:51;;;;;;;11.68;8.78;;;;;;;;;;1860361;76;21654;-82
2022/09/22 04:56:21;;;;;;;10.50;8.75;;;;;;;;;;1869146;75;21221;-83
2022/09/22 04:58:52;;;;;;;10.40;8.00;;;;;;;;;;1867164;75;21147;-86
2022/09/22 05:01:26;;;;;;;9.40;8.28;;;;;;;;;;1864262;75;21170;-87
2022/09/22 05:03:54;;;;;;;11.68;8.58;;;;;;;;;;1868408;76;21322;-86
2022/09/22 05:06:25;;;;;;;8.05;7.05;;;;;;;;;;1871252;75;21142;-86
2022/09/22 05:08:55;;;;;;;8.80;7.87;;;;;;;;;;1870282;75;21119;-87
2022/09/22 05:11:25;;;;;;;8.60;7.70;;;;;;;;;;1871539;75;21257;-85
2022/09/22 05:13:57;;;;;;;8.63;7.72;;;;;;;;;;1869950;76;21143;-85
2022/09/22 05:16:29;;;;;;;8.43;7.40;;;;;;;;;;1848138;76;21123;-86
2022/09/22 05:18:59;;;;;;;9.70;8.18;;;;;;;;;;1824058;77;21138;-87
2022/09/22 05:21:29;;;;;;;8.75;7.85;;;;;;;;;;1835061;77;21175;-84
2022/09/22 05:23:59;;;;;;;8.40;7.45;;;;;;;;;;1828741;77;21682;-87
2022/09/22 05:26:31;;;;;;;7.58;6.78;;;;;;;;;;1821264;77;21147;-86
2022/09/22 05:29:01;;;;;;;9.03;8.13;;;;;;;;;;1819698;77;21104;-85
2022/09/22 05:31:31;;;;;;;8.45;7.50;;;;;;;;;;1861644;75;21200;-85
2022/09/22 05:34:02;;;;;;;9.65;8.65;;;;;;;;;;1871119;76;21158;-84
2022/09/22 05:36:32;;;;;;;8.18;7.25;;;;;;;;;;1868159;76;21223;-85
2022/09/22 05:39:02;;;;;;;8.80;7.90;;;;;;;;;;1867849;76;21507;-87
2022/09/22 05:41:33;;;;;;;8.20;7.40;;;;;;;;;;1866420;75;21137;-84
2022/09/22 05:44:03;;;;;;;8.38;7.47;;;;;;;;;;1859411;75;21241;-85
2022/09/22 05:46:35;;;;;;;13.00;6.97;;;;;;;;;;1815810;77;21080;-88
2022/09/22 05:49:05;;;;;;;8.58;7.00;;;;;;;;;;1851853;75;21180;-86
2022/09/22 05:51:35;;;;;;;8.28;7.47;;;;;;;;;;1857324;75;21144;-84
2022/09/22 05:54:05;;;;;;;8.40;6.75;;;;;;;;;;1863800;76;21119;-84
2022/09/22 05:56:36;;;;;;;8.60;6.65;;;;;;;;;;1861369;76;21212;-83
2022/09/22 05:59:06;;;;;;;8.28;7.08;;;;;;;;;;1875425;76;21681;-84
2022/09/22 06:01:37;;;;;;;7.87;7.00;;;;;;;;;;1856576;75;21143;-83
2022/09/22 06:04:07;;;;;;;8.95;6.90;;;;;;;;;;1869952;76;21123;-83
2022/09/22 06:06:38;;;;;;;7.92;7.12;;;;;;;;;;1858886;75;21163;-85
2022/09/22 06:09:08;;;;;;;8.98;7.22;;;;;;;;;;1864771;75;21652;-84
2022/09/22 06:11:38;;;;;;;8.00;7.20;;;;;;;;;;1858773;75;21147;-84
2022/09/22 06:14:08;;;;;;;9.18;6.90;;;;;;;;;;1850639;75;21130;-85
2022/09/22 06:16:38;;;;;;;7.85;6.87;;;;;;;;;;1860284;75;21151;-85
2022/09/22 06:19:09;;;;;;;7.83;6.90;;;;;;;;;;1856170;75;21259;-85
2022/09/22 06:21:39;;;;;;;8.43;7.40;;;;;;;;;;1852194;76;21246;-87
2022/09/22 06:24:09;;;;;;;11.38;7.78;;;;;;;;;;1849986;76;21545;-85
2022/09/22 06:26:39;;;;;;;8.00;7.05;;;;;;;;;;1819547;77;22470;-86
2022/09/22 06:29:09;;;;;;;8.13;7.28;;;;;;;;;;1861298;76;21848;-84
2022/09/22 06:31:40;;;;;;;9.78;7.37;;;;;;;;;;1854546;75;21753;-85
2022/09/22 06:34:11;;;;;;;8.68;7.00;;;;;;;;;;1863489;76;21145;-86
2022/09/22 06:36:44;;;;;;;8.18;7.25;;;;;;;;;;1856665;75;21140;-84
2022/09/22 06:39:13;;;;;;;7.70;6.90;;;;;;;;;;1861917;75;21159;-85
2022/09/22 06:41:44;;;;;;;7.58;6.87;;;;;;;;;;1850696;76;21168;-85
2022/09/22 06:44:14;;;;;;;9.65;7.55;;;;;;;;;;1854226;75;21123;-86
2022/09/22 06:46:44;;;;;;;10.28;7.80;;;;;;;;;;1861225;75;21093;-85
2022/09/22 06:49:18;;;;;;;9.55;7.45;;;;;;;;;;1786790;78;21619;-86
2022/09/22 06:51:49;;;;;;;7.95;7.15;;;;;;;;;;1825944;77;21124;-85
2022/09/22 06:54:19;;;;;;;7.53;6.83;;;;;;;;;;1826991;77;21217;-84
2022/09/22 06:56:51;;;;;;;8.48;7.58;;;;;;;;;;1818451;76;21161;-84
2022/09/22 06:59:21;;;;;;;8.58;7.50;;;;;;;;;;1825190;76;21197;-84
2022/09/22 07:01:51;;;;;;;10.13;7.62;;;;;;;;;;1817512;77;21199;-86
2022/09/22 07:04:22;;;;;;;11.38;8.50;;;;;;;;;;1814529;77;21263;-87
2022/09/22 07:06:52;;;;;;;9.60;7.87;;;;;;;;;;1819645;76;21251;-85
2022/09/22 07:09:22;;;;;;;8.35;7.45;;;;;;;;;;1822754;76;21150;-86
2022/09/22 07:11:53;;;;;;;8.00;6.72;;;;;;;;;;1820333;76;21107;-87
2022/09/22 07:14:24;;;;;;;11.55;5.17;;;;;;;;;;1821414;76;21211;-85
2022/09/22 07:16:54;;;;;;;8.73;4.60;;;;;;;;;;1818231;76;21193;-85
2022/09/22 07:19:24;;;;;;;4.50;3.10;;;;;;;;;;1819570;76;21159;-83
2022/09/22 07:21:54;;;;;;;4.42;3.10;;;;;;;;;;1822250;77;21260;-84
2022/09/22 07:24:56;;;;;;;3.92;2.72;;;;;;;;;;1819181;77;21177;-83
2022/09/22 07:27:03;;;;;;;6.47;2.25;;;;;;;;;;1805738;76;21692;-84
2022/09/22 07:29:31;;;;;;;2.50;1.85;;;;;;;;;;1822528;76;21724;-85
2022/09/22 07:32:02;;;;;;;4.00;1.47;;;;;;;;;;1826031;76;21081;-83
2022/09/22 07:34:33;;;;;;;2.20;1.70;;;;;;;;;;1818060;76;21297;-84
2022/09/22 07:37:03;;;;;;;4.10;1.60;;;;;;;;;;1763772;79;21315;-83
2022/09/22 07:39:33;;;;;;;2.25;1.70;;;;;;;;;;1786035;78;21143;-85
2022/09/22 07:42:03;;;;;;;4.45;1.75;;;;;;;;;;1823272;76;21147;-84
2022/09/22 07:47:06;;;;;;;5.12;2.10;;;;;;;;;;1817930;76;21151;-84
2022/09/22 07:49:36;;;;;;;4.87;2.12;;;;;;;;;;1835019;76;21218;-84
2022/09/22 07:52:06;;;;;;;2.52;1.52;;;;;;;;;;1821433;78;21158;-82
2022/09/22 07:54:38;;;;;;;2.98;1.90;;;;;;;;;;1824400;77;21210;-84
2022/09/22 07:57:09;;;;;;;5.62;2.30;;;;;;;;;;1825976;76;21167;-85
2022/09/22 07:59:40;;;;;;;3.15;2.20;;;;;;;;;;1832895;77;21096;-84
2022/09/22 08:02:10;;;;;;;3.10;1.80;;;;;;;;;;1831796;76;21259;-85
2022/09/22 08:04:41;;;;;;;3.50;2.10;;;;;;;;;;1840473;77;21155;-85
2022/09/22 08:07:13;;;;;;;3.00;1.70;;;;;;;;;;1810918;77;21186;-85
2022/09/22 08:09:43;;;;;;;3.12;1.40;;;;;;;;;;1830125;76;21234;-85
2022/09/22 08:12:13;;;;;;;2.15;1.40;;;;;;;;;;1820613;77;21161;-84
2022/09/22 08:14:46;;;;;;;3.08;1.42;;;;;;;;;;1830743;77;21088;-84
2022/09/22 08:17:18;;;;;;;4.17;1.42;;;;;;;;;;1834171;77;21150;-84
2022/09/22 08:19:48;;;;;;;2.62;1.17;;;;;;;;;;1824381;77;21135;-86
2022/09/22 08:22:19;;;;;;;2.85;1.20;;;;;;;;;;1837282;77;21216;-82
2022/09/22 08:24:49;;;;;;;2.35;1.30;;;;;;;;;;1833989;77;21063;-79
2022/09/22 08:27:19;;;;;;;2.80;1.32;;;;;;;;;;1836526;77;21112;-82
2022/09/22 08:29:50;;;;;;;4.10;1.60;;;;;;;;;;1796418;78;21221;-82
2022/09/22 08:32:20;;;;;;;2.00;1.32;;;;;;;;;;1758580;80;21338;-83
2022/09/22 08:34:56;;;;;;;2.75;1.60;;;;;;;;;;1829978;77;21179;-83
2022/09/22 08:37:26;;;;;;;3.30;1.72;;;;;;;;;;1818591;76;21189;-83
2022/09/22 08:39:55;;;;;;;3.83;1.72;;;;;;;;;;1827142;76;21075;-82
2022/09/22 08:42:28;;;;;;;3.10;1.87;;;;;;;;;;1832587;77;21262;-82
2022/09/22 08:45:05;;;;;;;2.80;2.25;;;;;;;;;;1830205;77;21158;-83
2022/09/22 08:52:38;;;;;;;3.60;1.90;;;;;;;;;;1830586;78;21689;-81
2022/09/22 08:55:10;;;;;;;2.72;1.67;;;;;;;;;;1833048;77;21076;-80
2022/09/22 08:57:40;;;;;;;2.25;1.50;;;;;;;;;;1830556;78;21146;-80
2022/09/22 09:00:11;;;;;;;3.08;1.90;;;;;;;;;;1837197;76;21254;-81
2022/09/22 09:02:43;;;;;;;2.90;1.70;;;;;;;;;;1856267;77;21151;-82
2022/09/22 09:05:14;;;;;;;3.58;1.82;;;;;;;;;;1829282;76;22094;-82
2022/09/22 09:07:46;;;;;;;2.83;1.85;;;;;;;;;;1825358;78;21163;-83
2022/09/22 09:10:19;;;;;;;4.87;2.17;;;;;;;;;;1837778;76;21171;-82
2022/09/22 09:12:48;;;;;;;4.25;1.87;;;;;;;;;;1841121;77;21137;-82
2022/09/22 09:15:20;;;;;;;2.52;1.60;;;;;;;;;;1818349;76;21176;-82
2022/09/22 09:17:51;;;;;;;3.15;1.82;;;;;;;;;;1830768;77;21210;-82
2022/09/22 09:20:23;;;;;;;2.80;1.60;;;;;;;;;;1834025;78;21181;-83
2022/09/22 09:22:56;;;;;;;2.50;1.77;;;;;;;;;;1833676;77;21571;-81
2022/09/22 09:25:27;;;;;;;4.65;2.00;;;;;;;;;;1852035;76;21199;-81
2022/09/22 09:27:58;;;;;;;2.95;1.50;;;;;;;;;;1832878;78;21144;-81
2022/09/22 09:30:30;;;;;;;4.22;1.65;;;;;;;;;;1833545;77;21120;-82
2022/09/22 09:33:01;;;;;;;3.42;1.70;;;;;;;;;;1833462;78;21170;-83
2022/09/22 09:35:33;;;;;;;2.85;2.27;;;;;;;;;;1858294;76;21633;-85
2022/09/22 09:38:06;;;;;;;3.45;2.00;;;;;;;;;;1849532;76;21207;-82
2022/09/22 09:40:36;;;;;;;5.83;2.00;;;;;;;;;;1829654;77;21701;-82
2022/09/22 09:43:07;;;;;;;5.78;2.08;;;;;;;;;;1831825;76;21616;-84
2022/09/22 09:45:39;;;;;;;3.77;2.08;;;;;;;;;;1829078;75;21186;-83
2022/09/22 09:48:10;;;;;;;2.60;1.72;;;;;;;;;;1766500;79;21168;-83
2022/09/22 09:50:40;;;;;;;3.27;2.35;;;;;;;;;;1758917;80;21216;-82
2022/09/22 09:53:14;;;;;;;4.15;2.50;;;;;;;;;;1849928;76;21155;-81
2022/09/22 09:55:50;;;;;;;4.90;2.33;;;;;;;;;;1858287;75;21262;-85
2022/09/22 10:00:57;;;;;;;3.87;2.25;;;;;;;;;;1842181;76;21139;-81
2022/09/22 10:03:29;;;;;;;3.33;2.10;;;;;;;;;;1848707;76;21147;-82
2022/09/22 10:06:05;;;;;;;3.35;2.22;;;;;;;;;;1848818;76;21188;-81
2022/09/22 10:08:37;;;;;;;3.20;2.20;;;;;;;;;;1861956;76;21152;-82
2022/09/22 10:11:08;;;;;;;3.45;2.22;;;;;;;;;;1877483;76;21114;-83
2022/09/22 10:13:39;;;;;;;4.25;2.37;;;;;;;;;;1852716;76;21261;-83
2022/09/22 10:16:10;;;;;;;2.40;1.60;;;;;;;;;;1845302;76;21144;-83
2022/09/22 10:18:41;;;;;;;3.40;2.05;;;;;;;;;;1857108;76;21601;-83
2022/09/22 10:21:14;;;;;;;3.60;2.30;;;;;;;;;;1859103;76;21491;-83
2022/09/22 10:23:45;;;;;;;3.22;2.12;;;;;;;;;;1852497;76;21195;-84
2022/09/22 10:26:17;;;;;;;3.33;2.30;;;;;;;;;;1852424;76;21699;-83
2022/09/22 10:28:49;;;;;;;3.33;2.50;;;;;;;;;;1842070;76;21190;-82
2022/09/22 10:31:23;;;;;;;3.62;2.10;;;;;;;;;;1850691;76;21214;-83
2022/09/22 10:33:53;;;;;;;4.58;2.33;;;;;;;;;;1852682;76;21130;-83
2022/09/22 10:36:25;;;;;;;3.65;2.35;;;;;;;;;;1847986;74;21071;-83
2022/09/22 10:38:55;;;;;;;5.28;2.27;;;;;;;;;;1842683;76;21445;-83
2022/09/22 10:41:29;;;;;;;4.50;2.50;;;;;;;;;;1842969;75;21194;-83
2022/09/22 10:44:00;;;;;;;4.72;2.37;;;;;;;;;;1853918;76;21240;-85
2022/09/22 10:46:36;;;;;;;4.10;2.15;;;;;;;;;;1843578;76;21738;-82
2022/09/22 10:49:07;;;;;;;4.45;2.70;;;;;;;;;;1850678;76;21199;-83
2022/09/22 10:51:39;;;;;;;3.47;2.30;;;;;;;;;;1853659;76;21237;-85
2022/09/22 10:54:11;;;;;;;4.65;2.60;;;;;;;;;;1858853;75;21161;-83
2022/09/22 10:56:42;;;;;;;4.90;2.42;;;;;;;;;;1860981;75;21608;-82
2022/09/22 10:59:13;;;;;;;4.75;2.17;;;;;;;;;;1856168;76;21124;-82
2022/09/22 11:01:45;;;;;;;3.30;2.33;;;;;;;;;;1848035;76;21417;-81
2022/09/22 11:04:15;;;;;;;6.17;2.45;;;;;;;;;;1858964;75;21161;-84
2022/09/22 11:14:26;;;;;;;6.10;2.98;;;;;;;;;;1844156;76;21210;-83
2022/09/22 11:16:57;;;;;;;4.85;3.00;;;;;;;;;;1848657;76;21214;-84
2022/09/22 11:19:28;;;;;;;7.28;2.80;;;;;;;;;;1844505;76;21109;-83
2022/09/22 11:22:00;;;;;;;5.85;2.90;;;;;;;;;;1854067;76;21117;-83
2022/09/22 11:24:31;;;;;;;5.50;2.98;;;;;;;;;;1851631;75;21113;-84
2022/09/22 11:27:01;;;;;;;5.92;2.80;;;;;;;;;;1844050;76;21238;-83
2022/09/22 11:29:32;;;;;;;4.42;2.58;;;;;;;;;;1849321;76;21123;-84
2022/09/22 11:32:04;;;;;;;3.67;2.90;;;;;;;;;;1838052;76;21826;-85
2022/09/22 11:34:35;;;;;;;3.75;2.60;;;;;;;;;;1856010;76;21716;-85
2022/09/22 11:39:42;;;;;;;4.47;2.70;;;;;;;;;;1854520;76;21642;-82
2022/09/22 11:42:14;;;;;;;4.95;3.12;;;;;;;;;;1848726;76;21211;-83
2022/09/22 11:44:45;;;;;;;3.95;2.58;;;;;;;;;;1856147;75;21137;-83
2022/09/22 11:47:16;;;;;;;5.03;3.00;;;;;;;;;;1855164;76;21205;-84
2022/09/22 11:49:48;;;;;;;3.98;2.70;;;;;;;;;;1856910;76;21215;-83
2022/09/22 11:52:19;;;;;;;4.03;2.70;;;;;;;;;;1852696;76;21187;-82
2022/09/22 11:54:51;;;;;;;4.83;2.60;;;;;;;;;;1844212;76;21623;-83
2022/09/22 11:57:23;;;;;;;4.20;2.85;;;;;;;;;;1820043;77;21187;-83
2022/09/22 11:59:54;;;;;;;3.50;2.58;;;;;;;;;;1832225;76;21076;-80
2022/09/22 12:02:27;;;;;;;4.00;2.60;;;;;;;;;;1840901;76;21134;-82
2022/09/22 12:04:59;;;;;;;4.40;2.92;;;;;;;;;;1835934;76;21117;-84
2022/09/22 12:07:35;;;;;;;4.42;2.67;;;;;;;;;;1836562;77;21135;-81
2022/09/22 12:10:10;;;;;;;3.83;2.90;;;;;;;;;;1850965;77;21631;-83
2022/09/22 12:12:45;;;;;;;5.42;2.65;;;;;;;;;;1839298;76;21206;-84
2022/09/22 12:15:14;;;;;;;5.28;2.72;;;;;;;;;;1841619;76;21120;-82
2022/09/22 12:17:45;;;;;;;3.58;2.30;;;;;;;;;;1843114;77;21623;-84
2022/09/22 12:20:18;;;;;;;3.15;2.42;;;;;;;;;;1813456;78;21765;-81
2022/09/22 12:22:49;;;;;;;3.98;2.90;;;;;;;;;;1836211;76;21233;-84
2022/09/22 12:25:21;;;;;;;3.95;2.80;;;;;;;;;;1835776;76;21249;-81
2022/09/22 12:27:53;;;;;;;3.80;2.65;;;;;;;;;;1823119;76;21178;-82
2022/09/22 12:30:24;;;;;;;3.95;3.33;;;;;;;;;;1836877;76;21211;-82
2022/09/22 12:32:55;;;;;;;4.80;2.75;;;;;;;;;;1852389;77;21152;-82
2022/09/22 12:35:26;;;;;;;6.55;3.27;;;;;;;;;;1846642;77;21158;-81
2022/09/22 12:37:59;;;;;;;3.90;2.50;;;;;;;;;;1834025;77;21650;-82
2022/09/22 12:40:30;;;;;;;7.20;2.75;;;;;;;;;;1852301;76;21988;-83
2022/09/22 12:43:01;;;;;;;3.92;2.30;;;;;;;;;;1836439;77;21139;-83
2022/09/22 12:45:32;;;;;;;4.78;2.62;;;;;;;;;;1842072;76;21168;-84
2022/09/22 12:48:04;;;;;;;5.33;2.95;;;;;;;;;;1846661;77;21132;-83
2022/09/22 12:50:37;;;;;;;3.45;2.70;;;;;;;;;;1856510;76;21163;-83
2022/09/22 12:53:09;;;;;;;4.40;3.17;;;;;;;;;;1850239;76;21248;-82
2022/09/22 12:55:39;;;;;;;3.55;2.92;;;;;;;;;;1837339;76;21288;-82
2022/09/22 12:58:11;;;;;;;6.33;3.50;;;;;;;;;;1839411;77;21155;-83
2022/09/22 13:00:42;;;;;;;4.28;3.12;;;;;;;;;;1860517;76;21107;-83
2022/09/22 13:03:13;;;;;;;5.03;3.10;;;;;;;;;;1847392;76;21044;-82
2022/09/22 13:05:43;;;;;;;4.90;3.05;;;;;;;;;;1850413;76;21147;-83
2022/09/22 13:08:19;;;;;;;4.80;3.30;;;;;;;;;;1824421;77;21119;-83
2022/09/22 13:10:49;;;;;;;5.65;3.37;;;;;;;;;;1857383;76;21252;-84
2022/09/22 13:13:20;;;;;;;4.10;3.22;;;;;;;;;;1860438;75;21160;-82
2022/09/22 13:15:51;;;;;;;7.37;4.40;;;;;;;;;;1852574;75;21597;-82
2022/09/22 13:18:23;;;;;;;8.10;5.40;;;;;;;;;;1843029;75;21630;-82
2022/09/22 13:20:56;;;;;;;5.45;4.50;;;;;;;;;;1832444;76;21202;-84
2022/09/22 13:23:26;;;;;;;6.35;4.12;;;;;;;;;;1849426;76;21241;-82
2022/09/22 13:25:59;;;;;;;5.08;4.22;;;;;;;;;;1867604;75;21408;-83
2022/09/22 13:28:29;;;;;;;8.73;4.97;;;;;;;;;;1866662;75;21084;-83
2022/09/22 13:31:01;;;;;;;6.30;4.03;;;;;;;;;;1851009;76;21076;-83
2022/09/22 13:33:34;;;;;;;5.33;3.50;;;;;;;;;;1867805;75;21665;-83
2022/09/22 13:36:06;;;;;;;4.87;3.80;;;;;;;;;;1868217;76;21606;-83
2022/09/22 13:38:38;;;;;;;5.90;3.67;;;;;;;;;;1869674;75;21199;-83
2022/09/22 13:41:09;;;;;;;6.40;4.37;;;;;;;;;;1855580;75;21199;-83
2022/09/22 13:43:41;;;;;;;9.30;4.50;;;;;;;;;;1866931;75;21913;-84
2022/09/22 13:46:13;;;;;;;10.18;5.08;;;;;;;;;;1839086;77;21218;-83
2022/09/22 13:48:43;;;;;;;8.30;4.80;;;;;;;;;;1836261;77;21701;-84
2022/09/22 13:51:14;;;;;;;8.80;4.95;;;;;;;;;;1847166;76;21568;-84
2022/09/22 13:53:47;;;;;;;7.97;5.05;;;;;;;;;;1854742;76;21122;-82
2022/09/22 13:56:18;;;;;;;7.17;4.50;;;;;;;;;;1863947;76;21184;-82
2022/09/22 13:58:51;;;;;;;6.35;4.55;;;;;;;;;;1845404;76;21163;-82
2022/09/22 14:01:22;;;;;;;5.85;4.33;;;;;;;;;;1864165;76;21555;-84
2022/09/22 14:03:54;;;;;;;5.47;3.98;;;;;;;;;;1864031;76;21090;-82
2022/09/22 14:06:25;;;;;;;5.20;3.87;;;;;;;;;;1855182;75;22397;-83
2022/09/22 14:08:55;;;;;;;5.85;3.90;;;;;;;;;;1857058;76;21288;-82
2022/09/22 14:11:30;;;;;;;6.25;4.17;;;;;;;;;;1859477;76;21122;-84
2022/09/22 14:14:05;;;;;;;6.72;3.87;;;;;;;;;;1855175;75;21140;-82
2022/09/22 14:16:39;;;;;;;6.70;4.00;;;;;;;;;;1851667;76;21549;-80
2022/09/22 14:19:10;;;;;;;8.73;4.60;;;;;;;;;;1861174;76;21167;-81
2022/09/22 14:21:42;;;;;;;6.70;5.12;;;;;;;;;;1873045;76;21092;-83
2022/09/22 14:24:14;;;;;;;5.78;3.98;;;;;;;;;;1832771;76;21180;-84
2022/09/22 14:26:45;;;;;;;6.20;3.95;;;;;;;;;;1842686;76;21147;-82
2022/09/22 14:29:15;;;;;;;7.15;4.00;;;;;;;;;;1846515;76;21163;-82
2022/09/22 14:31:47;;;;;;;5.35;3.37;;;;;;;;;;1855225;76;21225;-82
2022/09/22 14:34:18;;;;;;;5.83;3.83;;;;;;;;;;1864475;76;21147;-82
2022/09/22 14:36:55;;;;;;;6.00;3.80;;;;;;;;;;1869315;76;21138;-82
2022/09/22 14:39:23;;;;;;;7.37;3.83;;;;;;;;;;1861224;76;21535;-82
2022/09/22 14:41:57;;;;;;;5.33;3.60;;;;;;;;;;1845256;76;21618;-84
2022/09/22 14:44:31;;;;;;;6.00;3.27;;;;;;;;;;1850759;76;21171;-82
2022/09/22 14:47:04;;;;;;;4.78;3.35;;;;;;;;;;1854132;76;21241;-83
2022/09/22 14:49:35;;;;;;;5.55;3.62;;;;;;;;;;1861826;76;21975;-83
2022/09/22 14:52:07;;;;;;;6.08;3.75;;;;;;;;;;1861854;76;21699;-83
2022/09/22 14:54:38;;;;;;;6.95;3.77;;;;;;;;;;1855533;76;21110;-83
2022/09/22 14:57:09;;;;;;;4.87;3.70;;;;;;;;;;1839105;76;21275;-81
2022/09/22 15:02:40;;;;;;;5.80;3.72;;;;;;;;;;1828046;77;21179;-83
2022/09/22 15:05:10;;;;;;;5.17;3.58;;;;;;;;;;1824731;77;21193;-83
2022/09/22 15:07:48;;;;;;;4.55;3.30;;;;;;;;;;1833723;76;21176;-84
2022/09/22 15:10:16;;;;;;;6.00;2.70;;;;;;;;;;1830359;77;21126;-83
2022/09/22 15:12:49;;;;;;;6.17;2.83;;;;;;;;;;1828070;78;21171;-82
2022/09/22 15:15:21;;;;;;;5.95;3.27;;;;;;;;;;1828864;76;21142;-83
2022/09/22 15:20:30;;;;;;;7.83;3.40;;;;;;;;;;1798556;79;21095;-81
2022/09/22 15:22:57;;;;;;;7.15;3.65;;;;;;;;;;1833441;77;21177;-82
2022/09/22 15:25:27;;;;;;;4.92;3.45;;;;;;;;;;1807062;78;21192;-82
2022/09/22 15:27:58;;;;;;;6.62;3.80;;;;;;;;;;1832147;76;21636;-84
2022/09/22 15:30:31;;;;;;;6.47;3.70;;;;;;;;;;1833941;76;21151;-84